Time;durP1;ratioP1;P1;durP2;ratioP2;P2;SDS_P1;SDS_P2;PMS_P1;PMS_P2;Temp;Humidity;BMP_temperature;BMP_pressure;BME280_temperature;BME280_humidity;BME280_pressure;Samples;Min_cycle;Max_cycle;Signal;HPM_P1;HPM_P2
2022/12/04 00:01:18;;;;;;;19.35;12.25;;;;;;;-8.53;80.73;102606.81;5024112;28;20033;-65
2022/12/04 00:03:44;;;;;;;20.40;12.70;;;;;;;-8.59;80.54;102616.25;5006799;28;20037;-65
2022/12/04 00:06:16;;;;;;;19.80;12.55;;;;;;;-8.58;80.37;102622.13;5016395;28;20026;-65
2022/12/04 00:08:42;;;;;;;20.25;12.25;;;;;;;-8.76;80.46;102623.66;5014936;28;20034;-65
2022/12/04 00:11:10;;;;;;;16.92;11.60;;;;;;;-8.67;80.97;102632.13;5004496;28;20176;-68
2022/12/04 00:13:37;;;;;;;20.30;12.57;;;;;;;-8.68;81.01;102625.31;4960875;28;1291639;-65
2022/12/04 00:16:05;;;;;;;20.15;12.30;;;;;;;-8.95;80.16;102604.16;5025274;28;20025;-66
2022/12/04 00:18:30;;;;;;;24.25;12.82;;;;;;;-8.77;81.21;102631.91;5009135;28;20022;-66
2022/12/04 00:20:56;;;;;;;18.90;12.77;;;;;;;-8.76;80.45;102621.16;5011901;28;20098;-65
2022/12/04 00:23:21;;;;;;;23.23;12.45;;;;;;;-8.77;81.15;102631.91;5011414;28;20310;-65
2022/12/04 00:25:47;;;;;;;20.35;13.32;;;;;;;-8.70;81.27;102631.81;5023517;28;20112;-64
2022/12/04 00:28:17;;;;;;;22.73;13.40;;;;;;;-8.83;80.11;102609.56;5003857;28;20113;-68
2022/12/04 00:30:44;;;;;;;22.02;13.05;;;;;;;-8.82;81.09;102623.91;5022543;28;20068;-65
2022/12/04 00:33:13;;;;;;;18.95;12.02;;;;;;;-8.89;80.43;102623.97;5021121;28;20034;-64
2022/12/04 00:35:38;;;;;;;19.95;13.15;;;;;;;-8.74;80.53;102628.06;5016261;28;20034;-65
2022/12/04 00:38:04;;;;;;;21.75;13.45;;;;;;;-8.68;79.89;102627.81;5008629;28;20032;-64
2022/12/04 00:40:30;;;;;;;19.90;12.73;;;;;;;-8.66;79.42;102633.91;5023710;28;20022;-64
2022/12/04 00:42:55;;;;;;;18.67;12.50;;;;;;;-8.55;80.02;102640.03;5005694;28;20089;-65
2022/12/04 00:45:21;;;;;;;19.73;13.00;;;;;;;-8.52;79.46;102628.69;5004726;28;20029;-65
2022/12/04 00:47:47;;;;;;;23.88;13.10;;;;;;;-8.65;79.90;102638.19;5014320;28;20021;-65
2022/12/04 00:50:12;;;;;;;29.42;13.25;;;;;;;-8.65;79.62;102640.69;5019651;28;20030;-66
2022/12/04 00:52:38;;;;;;;18.33;12.90;;;;;;;-8.82;80.77;102635.53;5004516;28;20041;-64
2022/12/04 00:55:04;;;;;;;21.10;12.77;;;;;;;-8.95;79.84;102633.38;5024371;28;20029;-67
2022/12/04 00:57:30;;;;;;;19.25;12.63;;;;;;;-8.90;80.78;102635.63;5011112;28;20034;-65
2022/12/04 00:59:55;;;;;;;21.38;13.40;;;;;;;-9.12;81.08;102624.06;5024240;28;20225;-64
2022/12/04 01:02:21;;;;;;;24.65;13.90;;;;;;;-8.98;81.39;102631.41;5018227;28;20032;-65
2022/12/04 01:04:47;;;;;;;22.27;12.68;;;;;;;-9.06;81.47;102634.78;5005660;28;20026;-65
2022/12/04 01:07:13;;;;;;;20.95;12.90;;;;;;;-8.79;80.55;102626.72;5024313;28;20242;-65
2022/12/04 01:09:38;;;;;;;19.63;12.65;;;;;;;-8.79;79.40;102626.72;5009917;28;20026;-65
2022/12/04 01:12:04;;;;;;;23.10;14.10;;;;;;;-8.77;79.68;102630.28;5024158;28;20040;-65
2022/12/04 01:14:30;;;;;;;21.08;11.80;;;;;;;-8.81;80.14;102625.66;5016778;28;20081;-65
2022/12/04 01:16:55;;;;;;;21.65;13.82;;;;;;;-8.90;80.39;102627.22;5004537;28;20029;-65
2022/12/04 01:19:21;;;;;;;18.52;12.77;;;;;;;-8.69;79.55;102631.09;5004199;28;20211;-65
2022/12/04 01:21:47;;;;;;;20.02;12.27;;;;;;;-8.63;79.02;102629.22;5014475;28;20023;-66
2022/12/04 01:24:12;;;;;;;20.08;12.38;;;;;;;-8.73;78.91;102626.47;5016757;28;20028;-65
2022/12/04 01:26:38;;;;;;;21.73;12.38;;;;;;;-8.86;79.39;102627.69;5018738;28;20022;-65
2022/12/04 01:29:04;;;;;;;18.90;12.10;;;;;;;-8.81;79.79;102639.84;5020459;28;20019;-66
2022/12/04 01:31:30;;;;;;;19.42;12.00;;;;;;;-8.75;79.27;102633.84;5004436;28;20130;-64
2022/12/04 01:33:56;;;;;;;24.55;14.25;;;;;;;-9.00;79.74;102634.53;5022468;28;20017;-66
2022/12/04 01:36:24;;;;;;;23.20;13.00;;;;;;;-8.82;80.17;102610.44;5017042;28;20249;-65
2022/12/04 01:38:49;;;;;;;21.20;13.13;;;;;;;-8.74;79.67;102629.72;5014376;28;20093;-66
2022/12/04 01:41:19;;;;;;;22.95;13.15;;;;;;;-8.78;79.57;102652.72;5003766;28;20026;-66
2022/12/04 01:44:05;;;;;;;22.08;13.30;;;;;;;-8.73;77.93;102639.91;5003363;28;20084;-65
2022/12/04 01:46:30;;;;;;;19.35;11.45;;;;;;;-9.18;78.41;102641.00;5023436;28;20049;-65
2022/12/04 01:48:56;;;;;;;25.00;12.75;;;;;;;-9.08;79.97;102633.69;5005302;28;20215;-65
2022/12/04 01:51:26;;;;;;;21.08;13.30;;;;;;;-9.09;80.43;102615.25;5017203;28;20025;-65
2022/12/04 01:54:01;;;;;;;22.77;13.18;;;;;;;-9.30;79.81;102628.94;5014021;28;20026;-65
2022/12/04 01:56:51;;;;;;;21.77;12.60;;;;;;;-9.09;79.37;102620.28;5028336;28;20029;-65
2022/12/04 01:59:21;;;;;;;23.95;13.82;;;;;;;-9.18;79.47;102646.00;5026098;28;20191;-63
2022/12/04 02:02:01;;;;;;;20.25;12.85;;;;;;;-9.25;79.95;102644.47;5024002;28;20089;-64
2022/12/04 02:04:27;;;;;;;19.63;11.80;;;;;;;-9.24;78.90;102643.75;5042851;28;20032;-65
2022/12/04 02:06:53;;;;;;;22.40;13.15;;;;;;;-9.13;79.66;102649.91;5035706;28;20364;-64
2022/12/04 02:09:20;;;;;;;22.48;12.93;;;;;;;-9.34;81.23;102646.00;5029603;28;20022;-65
2022/12/04 02:11:55;;;;;;;23.92;14.00;;;;;;;-9.47;81.49;102636.28;5023401;28;20050;-66
2022/12/04 02:14:24;;;;;;;20.58;12.68;;;;;;;-9.23;80.61;102653.94;5028314;28;20318;-64
2022/12/04 02:16:53;;;;;;;24.42;13.27;;;;;;;-9.06;79.58;102657.38;5041082;28;20364;-64
2022/12/04 02:19:38;;;;;;;26.33;13.40;;;;;;;-9.17;78.25;102656.22;5022630;28;20030;-65
2022/12/04 02:22:12;;;;;;;24.58;13.65;;;;;;;-9.41;80.08;102631.91;5032407;28;20293;-66
2022/12/04 02:24:51;;;;;;;23.02;12.82;;;;;;;-9.41;80.52;102630.28;5027208;28;20045;-66
2022/12/04 02:27:35;;;;;;;20.20;12.30;;;;;;;-9.67;80.13;102649.19;5035555;28;20088;-66
2022/12/04 02:30:05;;;;;;;19.20;12.18;;;;;;;-9.54;79.67;102647.25;5042165;28;20041;-64
2022/12/04 02:32:58;;;;;;;21.17;12.00;;;;;;;-9.52;81.08;102653.31;5036127;28;20245;-65
2022/12/04 02:35:32;;;;;;;20.88;12.98;;;;;;;-9.65;80.60;102637.69;5037121;28;20168;-66
2022/12/04 02:38:25;;;;;;;23.38;13.48;;;;;;;-9.55;80.51;102647.97;5022992;28;20029;-65
2022/12/04 02:41:06;;;;;;;23.55;13.00;;;;;;;-9.37;79.60;102649.06;5025182;28;20045;-65
2022/12/04 02:43:39;;;;;;;21.60;13.40;;;;;;;-9.72;79.53;102623.59;5042642;28;20183;-65
2022/12/04 02:46:12;;;;;;;21.08;12.52;;;;;;;-9.50;80.71;102639.34;5023575;28;20064;-66
2022/12/04 02:48:41;;;;;;;22.58;12.60;;;;;;;-9.23;78.94;102646.41;5038216;28;20147;-65
2022/12/04 02:51:11;;;;;;;20.02;12.23;;;;;;;-9.23;79.93;102653.06;5030358;28;20022;-66
2022/12/04 02:53:43;;;;;;;19.05;12.23;;;;;;;-9.24;79.31;102668.84;5029692;28;20021;-65
2022/12/04 02:56:13;;;;;;;21.55;12.95;;;;;;;-9.34;78.91;102623.44;5039370;28;20233;-65
2022/12/04 02:58:45;;;;;;;20.15;12.70;;;;;;;-9.60;80.02;102649.13;5034359;28;20036;-65
2022/12/04 03:01:19;;;;;;;20.17;12.52;;;;;;;-9.74;80.76;102642.59;5041408;28;20210;-65
2022/12/04 03:03:57;;;;;;;20.88;12.43;;;;;;;-9.74;78.94;102658.53;5042961;28;20061;-64
2022/12/04 03:06:26;;;;;;;23.60;12.80;;;;;;;-9.63;79.92;102662.22;5032948;28;20022;-65
2022/12/04 03:09:00;;;;;;;22.83;12.35;;;;;;;-9.87;79.43;102627.84;5026158;28;20298;-65
2022/12/04 03:11:29;;;;;;;20.55;12.45;;;;;;;-9.59;79.61;102666.84;5025770;28;20105;-65
2022/12/04 03:14:01;;;;;;;19.77;11.95;;;;;;;-9.71;80.58;102668.00;5027325;28;20183;-65
2022/12/04 03:16:33;;;;;;;22.40;13.05;;;;;;;-9.85;79.22;102616.38;5045866;28;20096;-66
2022/12/04 03:19:16;;;;;;;21.27;12.40;;;;;;;-9.77;80.60;102642.28;5027795;28;20033;-64
2022/12/04 03:21:47;;;;;;;21.25;12.68;;;;;;;-9.66;80.08;102673.50;5040300;28;20021;-65
2022/12/04 03:24:32;;;;;;;21.88;12.45;;;;;;;-9.55;80.70;102665.53;5034376;28;20029;-65
2022/12/04 03:27:22;;;;;;;22.67;12.50;;;;;;;-9.49;78.27;102663.72;5025911;28;20028;-64
2022/12/04 03:30:08;;;;;;;23.05;13.38;;;;;;;-9.41;80.22;102669.53;5034229;28;20031;-65
2022/12/04 03:32:55;;;;;;;19.90;12.45;;;;;;;-9.30;79.71;102659.03;5039154;28;20264;-65
2022/12/04 03:35:26;;;;;;;19.08;12.30;;;;;;;-9.29;78.19;102664.94;5030214;28;20025;-65
2022/12/04 03:38:00;;;;;;;21.33;12.23;;;;;;;-9.32;79.13;102654.56;5045170;28;20033;-65
2022/12/04 03:40:29;;;;;;;18.55;11.65;;;;;;;-9.23;79.09;102666.50;5025521;28;20021;-65
2022/12/04 03:43:27;;;;;;;19.88;11.65;;;;;;;-9.05;78.23;102666.66;5025684;28;20026;-65
2022/12/04 03:46:05;;;;;;;21.05;12.45;;;;;;;-9.15;78.07;102663.91;5042741;28;20029;-66
2022/12/04 03:48:52;;;;;;;21.38;12.63;;;;;;;-9.25;76.78;102657.91;5031250;28;20179;-65
2022/12/04 03:51:33;;;;;;;20.58;12.07;;;;;;;-9.33;78.34;102675.38;5025473;28;20033;-66
2022/12/04 03:54:22;;;;;;;20.83;12.32;;;;;;;-9.54;77.08;102653.16;5034816;28;20071;-65
2022/12/04 03:56:56;;;;;;;24.00;12.10;;;;;;;-9.62;78.04;102669.03;5037199;28;20245;-64
2022/12/04 03:59:27;;;;;;;21.30;12.20;;;;;;;-9.78;77.61;102650.53;5035376;28;20322;-65
2022/12/04 04:01:57;;;;;;;18.95;11.38;;;;;;;-9.39;77.86;102666.47;5044847;28;20064;-65
2022/12/04 04:04:30;;;;;;;24.48;13.32;;;;;;;-9.28;78.26;102680.16;5025328;28;20026;-65
2022/12/04 04:07:06;;;;;;;20.23;13.25;;;;;;;-9.53;77.22;102674.13;5025070;28;20022;-65
2022/12/04 04:09:36;;;;;;;20.52;12.48;;;;;;;-9.72;77.54;102659.59;5035611;28;20073;-65
2022/12/04 04:12:07;;;;;;;22.30;12.80;;;;;;;-9.59;78.79;102686.00;5034983;28;20229;-65
2022/12/04 04:26:30;;;;;;;21.50;12.70;;;;;;;-9.67;77.77;102651.69;5039745;28;20093;-65
2022/12/04 04:28:56;;;;;;;23.15;12.23;;;;;;;-9.57;79.30;102695.47;5025216;28;20038;-65
2022/12/04 04:31:57;;;;;;;23.55;12.88;;;;;;;-9.66;77.80;102689.47;5044670;28;20352;-65
2022/12/04 04:34:32;;;;;;;21.45;12.40;;;;;;;-9.59;76.84;102693.50;5040205;28;20094;-65
2022/12/04 04:37:05;;;;;;;23.35;12.32;;;;;;;-9.64;78.63;102700.53;5041591;28;20036;-66
2022/12/04 04:40:00;;;;;;;20.63;12.27;;;;;;;-9.64;79.02;102703.06;5039889;28;20084;-66
2022/12/04 04:42:38;;;;;;;21.58;12.68;;;;;;;-9.68;77.46;102688.41;5037470;28;20093;-66
2022/12/04 04:45:10;;;;;;;27.08;13.13;;;;;;;-9.92;77.73;102689.13;5034437;28;20034;-65
2022/12/04 04:47:49;;;;;;;;;;;;;;;-9.61;78.40;102713.41;5025000;28;20079;-65
2022/12/04 04:50:17;;;;;;;23.65;12.90;;;;;;;-9.91;78.47;102699.31;5027279;28;19975;-64
2022/12/04 04:52:47;;;;;;;23.40;14.23;;;;;;;-9.72;78.41;102696.31;5024466;28;20018;-65
2022/12/04 04:55:15;;;;;;;24.73;13.65;;;;;;;-9.66;79.42;102716.13;5034966;28;20266;-64
2022/12/04 04:57:40;;;;;;;21.50;11.55;;;;;;;-9.56;78.16;102714.81;5034837;28;20056;-65
2022/12/04 05:00:18;;;;;;;22.75;12.10;;;;;;;-9.49;77.66;102712.97;5024393;28;20029;-66
2022/12/04 05:02:45;;;;;;;24.02;12.07;;;;;;;-9.57;77.77;102715.53;5029515;28;20314;-66
2022/12/04 05:05:11;;;;;;;21.42;13.20;;;;;;;-9.61;76.73;102700.88;5031019;28;20022;-66
2022/12/04 05:07:37;;;;;;;20.02;12.40;;;;;;;-9.57;77.50;102718.03;5041667;28;20021;-66
2022/12/04 05:10:04;;;;;;;26.00;12.95;;;;;;;-9.75;76.50;102711.00;5032829;28;20213;-65
2022/12/04 05:12:29;;;;;;;22.35;13.35;;;;;;;-9.62;77.48;102709.16;5026790;28;20059;-65
2022/12/04 05:14:55;;;;;;;23.08;12.88;;;;;;;-9.57;79.02;102710.50;5030365;28;20041;-66
2022/12/04 05:17:21;;;;;;;21.63;12.88;;;;;;;-9.78;77.67;102710.69;5032160;28;20045;-65
2022/12/04 05:19:52;;;;;;;24.58;13.68;;;;;;;-9.55;77.63;102718.19;5030034;28;20041;-66
2022/12/04 05:22:18;;;;;;;;;;;;;;;-9.63;78.42;102708.94;5033403;28;20030;-65
2022/12/04 05:24:44;;;;;;;20.88;12.32;;;;;;;-9.49;77.90;102715.47;5035684;28;19981;-65
2022/12/04 05:27:09;;;;;;;21.15;12.93;;;;;;;-9.61;77.93;102718.44;5036479;28;20257;-65
2022/12/04 05:29:35;;;;;;;24.75;12.60;;;;;;;-9.55;78.51;102716.59;5034319;28;20036;-66
2022/12/04 05:32:01;;;;;;;27.98;13.75;;;;;;;-9.69;78.12;102716.69;5032679;28;20077;-64
2022/12/04 05:34:26;;;;;;;23.65;13.35;;;;;;;-9.73;78.15;102715.47;5034278;28;20178;-65
2022/12/04 05:36:52;;;;;;;25.98;14.13;;;;;;;-9.84;78.40;102725.06;5029666;28;20226;-65
2022/12/04 05:39:18;;;;;;;20.23;12.63;;;;;;;-9.91;79.12;102720.97;5031301;28;20024;-66
2022/12/04 05:41:43;;;;;;;22.70;13.52;;;;;;;-9.97;79.26;102716.19;5034794;28;20021;-65
2022/12/04 05:44:09;;;;;;;25.73;13.05;;;;;;;-9.86;78.90;102721.47;5041405;28;20325;-65
2022/12/04 05:46:35;;;;;;;21.02;12.65;;;;;;;-9.76;79.45;102717.66;5023143;28;20022;-67
2022/12/04 05:49:00;;;;;;;21.73;12.35;;;;;;;-10.18;79.14;102723.84;5023427;28;20060;-66
2022/12/04 05:51:26;;;;;;;24.30;13.48;;;;;;;-10.15;80.18;102721.66;5034224;28;20048;-66
2022/12/04 05:53:51;;;;;;;24.40;14.07;;;;;;;-10.02;78.84;102719.78;5043038;28;20030;-65
2022/12/04 05:56:17;;;;;;;22.75;12.77;;;;;;;-10.32;79.29;102722.28;5040326;28;20048;-65
2022/12/04 05:58:43;;;;;;;26.25;13.05;;;;;;;-10.19;78.22;102732.94;5023080;28;20341;-66
2022/12/04 06:01:20;;;;;;;23.95;12.88;;;;;;;-10.02;78.83;102738.94;5022361;28;20037;-65
2022/12/04 06:03:46;;;;;;;24.63;12.80;;;;;;;-10.14;78.27;102730.97;5023719;28;20262;-65
2022/12/04 06:06:13;;;;;;;23.08;13.40;;;;;;;-9.96;79.56;102735.53;5023522;28;20067;-65
2022/12/04 06:08:39;;;;;;;23.23;12.70;;;;;;;-9.85;78.44;102743.31;5030745;28;20029;-66
2022/12/04 06:11:16;;;;;;;23.02;12.48;;;;;;;-9.84;77.87;102743.50;5025331;28;20014;-65
2022/12/04 06:13:43;;;;;;;23.10;11.43;;;;;;;-9.79;76.80;102733.97;5039917;28;20349;-65
2022/12/04 06:16:20;;;;;;;20.35;12.70;;;;;;;-10.05;77.89;102714.44;5042894;28;20037;-65
2022/12/04 06:19:07;;;;;;;20.55;12.70;;;;;;;-9.96;77.16;102739.63;5028357;28;20057;-65
2022/12/04 06:21:35;;;;;;;24.75;13.30;;;;;;;-9.88;78.11;102714.69;5030640;28;20026;-66
2022/12/04 06:24:01;;;;;;;20.50;12.43;;;;;;;-9.78;77.97;102730.75;5032106;28;20033;-65
2022/12/04 06:26:27;;;;;;;21.60;12.98;;;;;;;-9.64;76.59;102733.16;5039096;28;20033;-65
2022/12/04 06:28:55;;;;;;;24.55;12.30;;;;;;;-9.74;76.91;102736.25;5023261;28;20033;-65
2022/12/04 06:31:22;;;;;;;23.90;12.63;;;;;;;-9.50;76.82;102733.75;5041459;28;20022;-65
2022/12/04 06:33:49;;;;;;;20.90;12.88;;;;;;;-9.63;77.14;102755.00;5027756;28;20085;-65
2022/12/04 06:36:18;;;;;;;23.13;12.52;;;;;;;-9.55;76.10;102741.69;5023098;28;20097;-65
2022/12/04 06:38:44;;;;;;;23.88;13.35;;;;;;;-9.67;77.41;102739.47;5029938;28;20033;-65
2022/12/04 06:41:15;;;;;;;21.95;12.27;;;;;;;-9.71;78.02;102726.56;5045365;28;20191;-66
2022/12/04 06:43:41;;;;;;;20.05;11.88;;;;;;;-9.60;77.50;102730.25;5026969;28;20028;-64
2022/12/04 06:46:12;;;;;;;21.38;11.73;;;;;;;-10.01;76.39;102719.06;5044071;28;20029;-66
2022/12/04 06:48:39;;;;;;;20.90;12.70;;;;;;;-9.83;77.93;102739.38;5032064;28;20195;-65
2022/12/04 06:51:13;;;;;;;23.33;12.73;;;;;;;-9.75;76.13;102726.06;5035105;28;20221;-65
2022/12/04 06:53:39;;;;;;;20.20;12.25;;;;;;;-9.67;77.15;102742.84;5041264;28;20049;-66
2022/12/04 06:56:07;;;;;;;20.05;12.13;;;;;;;-9.78;75.94;102721.59;5025955;28;20114;-66
2022/12/04 06:58:33;;;;;;;23.38;12.38;;;;;;;-9.69;75.90;102741.75;5035127;28;20210;-65
2022/12/04 07:00:59;;;;;;;24.42;12.18;;;;;;;-9.67;76.61;102735.31;5026369;28;20025;-65
2022/12/04 07:03:25;;;;;;;21.63;12.57;;;;;;;-9.76;76.54;102739.31;5036167;28;20032;-65
2022/12/04 07:05:51;;;;;;;23.17;12.85;;;;;;;-9.74;76.89;102738.75;5029339;28;20026;-66
2022/12/04 07:08:17;;;;;;;21.02;12.50;;;;;;;-9.47;75.97;102749.16;5026078;28;20221;-65
2022/12/04 07:10:43;;;;;;;24.00;12.60;;;;;;;-9.47;77.62;102750.03;5036733;28;20059;-66
2022/12/04 07:13:09;;;;;;;22.38;12.13;;;;;;;-9.73;75.13;102752.22;5028751;28;20032;-66
2022/12/04 07:15:37;;;;;;;22.45;12.40;;;;;;;-9.44;76.69;102762.91;5038509;28;20037;-65
2022/12/04 07:18:03;;;;;;;21.73;12.48;;;;;;;-9.28;75.92;102765.47;5037342;28;20052;-65
2022/12/04 07:20:30;;;;;;;18.45;11.70;;;;;;;-9.25;75.24;102765.81;5025432;28;20127;-65
2022/12/04 07:22:55;;;;;;;21.80;11.50;;;;;;;-9.11;75.46;102766.41;5028495;28;20061;-65
2022/12/04 07:25:21;;;;;;;19.55;11.10;;;;;;;-9.20;76.34;102767.19;5044617;28;20068;-65
2022/12/04 07:27:47;;;;;;;21.30;12.00;;;;;;;-9.31;75.94;102772.66;5041441;28;20029;-65
2022/12/04 07:30:13;;;;;;;22.80;11.23;;;;;;;-9.54;76.36;102757.63;5035521;28;20214;-65
2022/12/04 07:32:39;;;;;;;22.35;11.95;;;;;;;-9.39;75.04;102773.44;5035079;28;20029;-65
2022/12/04 07:35:05;;;;;;;23.83;12.15;;;;;;;-9.28;75.69;102778.00;5033765;28;20222;-66
2022/12/04 07:37:31;;;;;;;21.50;11.85;;;;;;;-9.49;75.76;102771.56;5035749;28;20029;-65
2022/12/04 07:39:56;;;;;;;20.83;11.95;;;;;;;-9.46;75.02;102774.41;5034960;28;20089;-65
2022/12/04 07:42:22;;;;;;;19.70;11.82;;;;;;;-9.31;74.62;102780.19;5034309;28;20026;-66
2022/12/04 07:44:48;;;;;;;22.15;11.57;;;;;;;-9.09;74.91;102775.88;5032874;28;20301;-66
2022/12/04 07:47:13;;;;;;;21.10;11.65;;;;;;;-9.29;74.20;102780.34;5034450;28;20053;-66
2022/12/04 07:49:39;;;;;;;20.48;12.75;;;;;;;-8.99;75.42;102776.88;5035783;28;20047;-66
2022/12/04 07:52:05;;;;;;;22.20;11.88;;;;;;;-8.73;74.38;102793.09;5039384;28;20068;-65
2022/12/04 07:54:31;;;;;;;19.05;10.68;;;;;;;-8.89;74.26;102775.53;5035677;28;20034;-66
2022/12/04 07:56:57;;;;;;;22.25;11.85;;;;;;;-8.82;73.63;102761.09;5034764;28;20085;-66
2022/12/04 07:59:22;;;;;;;20.25;12.70;;;;;;;-8.69;72.81;102780.16;5036669;28;20034;-65
2022/12/04 08:01:48;;;;;;;20.70;11.93;;;;;;;-8.66;72.61;102784.63;5034996;28;20045;-66
2022/12/04 08:04:13;;;;;;;21.25;11.32;;;;;;;-8.68;72.85;102788.56;5033857;28;20238;-66
2022/12/04 08:06:39;;;;;;;21.67;10.75;;;;;;;-8.83;73.61;102784.41;5034794;28;20033;-66
2022/12/04 08:09:06;;;;;;;24.15;11.45;;;;;;;-8.73;72.33;102779.66;5035116;28;20022;-65
2022/12/04 08:11:32;;;;;;;21.33;12.10;;;;;;;-8.45;72.21;102780.97;5035282;28;20139;-66
2022/12/04 08:14:01;;;;;;;25.95;11.65;;;;;;;-8.57;72.95;102757.94;5033556;28;20049;-66
2022/12/04 08:16:29;;;;;;;18.92;10.27;;;;;;;-8.77;72.70;102750.81;5034663;28;20053;-66
2022/12/04 08:18:55;;;;;;;20.52;11.30;;;;;;;-8.49;72.81;102781.38;5034747;28;20029;-66
2022/12/04 08:21:23;;;;;;;19.02;10.60;;;;;;;-8.32;72.13;102783.13;5030575;28;20088;-65
2022/12/04 08:23:51;;;;;;;18.98;10.35;;;;;;;-8.31;72.13;102754.72;5033112;28;20025;-67
2022/12/04 08:26:18;;;;;;;17.85;10.63;;;;;;;-8.43;71.57;102764.41;5035995;28;20030;-65
2022/12/04 08:28:44;;;;;;;17.98;10.93;;;;;;;-8.37;71.55;102772.56;5033985;28;20056;-67
2022/12/04 08:31:11;;;;;;;19.42;11.18;;;;;;;-8.43;72.28;102783.63;5034801;28;20029;-64
2022/12/04 08:33:37;;;;;;;17.15;10.45;;;;;;;-8.15;71.12;102773.22;5034423;28;20077;-66
2022/12/04 08:36:08;;;;;;;18.67;9.93;;;;;;;-7.95;71.71;102778.50;5034695;28;20212;-65
2022/12/04 08:38:34;;;;;;;15.82;10.45;;;;;;;-7.83;70.36;102778.16;5034710;28;20237;-66
2022/12/04 08:41:06;;;;;;;17.15;10.25;;;;;;;-7.71;69.79;102777.63;5028027;28;20021;-66
2022/12/04 08:43:32;;;;;;;19.08;10.43;;;;;;;-7.72;69.06;102764.19;5024303;28;20089;-68
2022/12/04 08:46:04;;;;;;;18.30;9.98;;;;;;;-7.76;69.39;102756.16;5039447;28;20021;-65
2022/12/04 08:48:30;;;;;;;17.70;10.25;;;;;;;-7.54;69.06;102775.25;5034267;28;20029;-68
2022/12/04 08:50:56;;;;;;;17.88;10.50;;;;;;;-7.42;68.71;102777.19;5031904;28;20090;-67
2022/12/04 08:53:23;;;;;;;22.23;9.73;;;;;;;-7.32;69.10;102779.94;5033723;28;20318;-66
2022/12/04 08:55:49;;;;;;;19.17;10.20;;;;;;;-7.47;69.42;102777.66;5034321;28;20052;-66
2022/12/04 08:58:15;;;;;;;18.90;10.20;;;;;;;-7.43;68.45;102776.31;5033269;28;20026;-65
2022/12/04 09:00:41;;;;;;;13.05;8.98;;;;;;;-7.33;67.86;102778.13;5032340;28;20113;-66
2022/12/04 09:03:11;;;;;;;17.60;10.13;;;;;;;-7.30;68.51;102758.31;5033472;28;20064;-66
2022/12/04 09:05:37;;;;;;;20.25;9.50;;;;;;;-7.24;67.87;102773.13;5033736;28;20034;-66
2022/12/04 09:08:03;;;;;;;17.45;9.90;;;;;;;-7.46;67.77;102773.50;5032179;28;20024;-66
2022/12/04 09:10:28;;;;;;;15.95;9.57;;;;;;;-6.94;67.47;102773.69;5033182;28;20032;-67
2022/12/04 09:12:54;;;;;;;18.08;9.80;;;;;;;-7.16;66.57;102767.25;5033494;28;20059;-68
2022/12/04 09:15:19;;;;;;;16.05;8.93;;;;;;;-7.24;67.40;102768.09;5033273;28;20225;-65
2022/12/04 09:17:45;;;;;;;13.40;8.32;;;;;;;-7.53;67.10;102766.06;5031376;28;20061;-67
2022/12/04 09:20:11;;;;;;;15.82;9.23;;;;;;;-7.33;67.83;102768.06;5034610;28;20018;-66
2022/12/04 09:22:37;;;;;;;17.30;9.98;;;;;;;-7.19;67.38;102767.81;5033731;28;20096;-65
2022/12/04 09:25:04;;;;;;;17.05;9.80;;;;;;;-7.35;68.18;102755.34;5033291;28;20309;-66
2022/12/04 09:27:35;;;;;;;18.00;8.98;;;;;;;-7.12;67.68;102770.22;5032762;28;20325;-67
2022/12/04 09:30:00;;;;;;;15.57;9.23;;;;;;;-7.14;66.83;102751.56;5033461;28;20025;-67
2022/12/04 09:32:26;;;;;;;15.65;9.15;;;;;;;-7.41;67.51;102752.22;5033497;28;20257;-66
2022/12/04 09:34:51;;;;;;;17.25;9.73;;;;;;;-7.31;69.25;102774.13;5031998;28;20072;-66
2022/12/04 09:37:17;;;;;;;15.20;8.85;;;;;;;-7.47;68.11;102749.97;5029489;28;20292;-65
2022/12/04 09:39:44;;;;;;;18.55;9.45;;;;;;;-7.24;67.52;102753.00;5033257;28;20018;-66
2022/12/04 09:42:33;;;;;;;18.70;10.95;;;;;;;-7.02;68.74;102753.53;5032523;28;20037;-66
2022/12/04 09:45:14;;;;;;;19.17;11.07;;;;;;;-7.04;68.40;102763.44;5035273;28;20018;-65
2022/12/04 09:47:44;;;;;;;16.38;9.68;;;;;;;-7.12;67.61;102762.66;5035735;28;20033;-65
2022/12/04 09:50:21;;;;;;;21.83;9.27;;;;;;;-7.08;67.31;102733.66;5032716;28;20026;-66
2022/12/04 09:52:56;;;;;;;16.17;10.05;;;;;;;-7.16;67.52;102763.09;5031853;28;20089;-66
2022/12/04 09:55:27;;;;;;;17.77;9.35;;;;;;;-7.44;67.59;102735.88;5029507;28;20022;-66
2022/12/04 09:57:56;;;;;;;17.52;10.98;;;;;;;-7.24;68.26;102736.25;5032434;28;20084;-65
2022/12/04 10:00:21;;;;;;;17.40;9.20;;;;;;;-7.25;67.11;102763.78;5032697;28;20017;-65
2022/12/04 10:02:53;;;;;;;16.83;9.85;;;;;;;-7.19;67.60;102747.69;5033648;28;20053;-67
2022/12/04 10:05:36;;;;;;;17.45;10.25;;;;;;;-6.82;67.43;102760.53;5022588;28;20060;-65
2022/12/04 10:08:11;;;;;;;15.90;9.52;;;;;;;-7.15;66.26;102769.03;5036001;28;20096;-67
2022/12/04 10:10:41;;;;;;;16.95;10.82;;;;;;;-7.16;67.81;102750.50;5030774;28;20037;-66
2022/12/04 10:13:35;;;;;;;17.65;10.15;;;;;;;-7.02;68.18;102745.97;5037248;28;20191;-65
2022/12/04 10:16:18;;;;;;;14.02;8.60;;;;;;;-7.19;67.53;102731.69;5038212;28;20036;-66
2022/12/04 10:19:01;;;;;;;15.88;9.38;;;;;;;-6.92;67.42;102730.16;5039736;28;20049;-66
2022/12/04 10:21:45;;;;;;;12.30;8.13;;;;;;;-6.97;66.41;102748.22;5037670;28;20028;-67
2022/12/04 10:24:47;;;;;;;16.45;8.75;;;;;;;-7.26;67.13;102712.56;5036699;28;20068;-68
2022/12/04 10:27:36;;;;;;;15.02;8.35;;;;;;;-6.93;67.48;102736.78;5041755;28;20037;-65
2022/12/04 10:30:13;;;;;;;18.00;9.13;;;;;;;-6.85;66.77;102717.41;5036180;28;20088;-66
2022/12/04 10:32:42;;;;;;;13.60;8.50;;;;;;;-6.63;66.59;102730.47;5038042;28;20225;-67
2022/12/04 10:35:23;;;;;;;18.58;8.80;;;;;;;-6.94;67.84;102704.78;5032710;28;20033;-66
2022/12/04 10:37:55;;;;;;;14.33;8.30;;;;;;;-6.72;66.10;102711.94;5043368;28;20044;-66
2022/12/04 10:40:30;;;;;;;16.13;8.27;;;;;;;-6.90;66.07;102686.72;5035475;28;20060;-66
2022/12/04 10:43:31;;;;;;;14.50;8.25;;;;;;;-6.53;66.50;102745.72;5035675;28;20064;-65
2022/12/04 10:45:57;;;;;;;15.95;8.93;;;;;;;-6.39;65.69;102723.50;5032624;28;20017;-66
2022/12/04 10:48:43;;;;;;;17.63;9.68;;;;;;;-6.47;66.86;102727.78;5037177;28;20022;-66
2022/12/04 10:51:15;;;;;;;13.88;8.18;;;;;;;-6.63;66.11;102706.13;5039458;28;20096;-67
2022/12/04 10:53:41;;;;;;;12.52;7.68;;;;;;;-6.62;66.21;102720.53;5034542;28;20037;-66
2022/12/04 10:56:27;;;;;;;15.35;8.27;;;;;;;-6.58;66.54;102729.28;5035516;28;20021;-66
2022/12/04 10:59:01;;;;;;;37.25;18.40;;;;;;;-6.46;66.36;102732.09;5035441;28;20038;-67
2022/12/04 11:01:33;;;;;;;11.70;7.57;;;;;;;-6.76;66.81;102716.66;5033934;28;20056;-67
2022/12/04 11:04:06;;;;;;;14.07;7.70;;;;;;;-6.90;65.32;102700.94;5036692;28;20093;-67
2022/12/04 11:06:32;;;;;;;17.38;8.57;;;;;;;-6.92;66.94;102718.44;5035309;28;20030;-66
2022/12/04 11:08:59;;;;;;;13.88;8.30;;;;;;;-6.73;67.79;102726.16;5031252;28;20017;-66
2022/12/04 11:11:30;;;;;;;13.10;7.13;;;;;;;-7.09;66.57;102729.34;5029051;28;20399;-68
2022/12/04 11:14:16;;;;;;;14.60;7.93;;;;;;;-6.88;66.46;102732.19;5019323;28;20104;-66
2022/12/04 11:16:59;;;;;;;16.38;8.23;;;;;;;-6.90;67.28;102726.13;5035849;28;20033;-67
2022/12/04 11:19:27;;;;;;;16.90;9.35;;;;;;;-6.95;67.43;102690.44;5034549;28;20025;-67
2022/12/04 11:21:55;;;;;;;15.23;8.50;;;;;;;-6.97;66.83;102701.97;5033044;28;20024;-66
2022/12/04 11:24:26;;;;;;;13.23;9.10;;;;;;;-6.88;67.62;102728.06;5040086;28;20027;-66
2022/12/04 11:26:52;;;;;;;14.60;9.18;;;;;;;-6.86;67.88;102724.06;5035766;28;20101;-65
2022/12/04 11:29:22;;;;;;;17.27;8.80;;;;;;;-7.18;68.88;102705.75;5038001;28;20057;-66
2022/12/04 11:31:51;;;;;;;14.90;9.27;;;;;;;-6.95;68.22;102705.53;5038247;28;20048;-66
2022/12/04 11:34:22;;;;;;;16.48;9.18;;;;;;;-7.03;68.33;102689.66;5036255;28;20303;-66
2022/12/04 11:36:55;;;;;;;15.43;9.40;;;;;;;-6.90;69.36;102713.53;5036894;28;20036;-66
2022/12/04 11:39:29;;;;;;;14.80;9.27;;;;;;;-6.70;68.69;102706.28;5036614;28;20040;-66